createdAt,value
2023-03-08T00:04:39.232Z,1.70
2023-03-08T00:09:40.834Z,1.70
2023-03-08T00:14:42.402Z,1.60
2023-03-08T00:19:44.393Z,1.60
2023-03-08T00:24:47.168Z,1.50
2023-03-08T00:29:50.724Z,1.60
2023-03-08T00:34:53.487Z,1.70
2023-03-08T00:39:55.142Z,1.70
2023-03-08T00:44:56.794Z,1.60
2023-03-08T00:50:01.561Z,1.60
2023-03-08T00:55:04.239Z,1.70
2023-03-08T01:00:12.860Z,1.60
2023-03-08T01:05:14.490Z,1.60
2023-03-08T01:10:16.259Z,1.70
2023-03-08T01:15:17.874Z,1.50
2023-03-08T01:20:21.792Z,1.50
2023-03-08T01:25:23.476Z,1.50
2023-03-08T01:30:26.060Z,1.50
2023-03-08T01:35:27.696Z,1.50
2023-03-08T01:40:29.357Z,1.50
2023-03-08T01:45:49.709Z,1.50
2023-03-08T01:50:53.476Z,1.60
2023-03-08T01:55:55.400Z,1.50
2023-03-08T02:00:57.218Z,1.50
2023-03-08T02:05:59.087Z,1.40
2023-03-08T02:11:01.452Z,1.40
2023-03-08T02:16:05.226Z,1.50
2023-03-08T02:21:07.053Z,1.40
2023-03-08T02:26:09.898Z,1.50
2023-03-08T02:31:11.868Z,1.40
2023-03-08T02:36:13.565Z,1.30
2023-03-08T02:41:15.098Z,1.50
2023-03-08T02:46:16.800Z,1.30
2023-03-08T02:51:18.598Z,1.30
2023-03-08T02:56:31.507Z,1.20
2023-03-08T03:01:33.366Z,1.10
2023-03-08T03:06:35.029Z,1.10
2023-03-08T03:11:40.031Z,1.10
2023-03-08T03:16:41.742Z,1.10
2023-03-08T03:21:43.330Z,1.00
2023-03-08T03:26:45.038Z,0.90
2023-03-08T03:31:48.698Z,0.90
2023-03-08T03:36:51.372Z,0.90
2023-03-08T03:41:56.119Z,0.90
2023-03-08T03:46:57.952Z,0.90
2023-03-08T03:51:59.814Z,0.80
2023-03-08T03:57:02.455Z,0.80
2023-03-08T04:02:04.233Z,0.90
2023-03-08T04:07:06.017Z,0.90
2023-03-08T04:12:18.840Z,1.00
2023-03-08T04:17:45.507Z,0.90
2023-03-08T04:22:58.893Z,1.00
2023-03-08T04:33:23.442Z,0.90
2023-03-08T04:38:26.278Z,0.90
2023-03-08T04:43:34.198Z,0.90
2023-03-08T04:48:35.932Z,0.90
2023-03-08T04:53:39.108Z,0.80
2023-03-08T04:58:41.417Z,0.90
2023-03-08T05:03:43.587Z,0.80
2023-03-08T05:08:45.331Z,0.90
2023-03-08T05:13:47.229Z,0.80
2023-03-08T05:18:49.083Z,0.80
2023-03-08T05:23:50.793Z,0.80
2023-03-08T05:28:52.392Z,0.80
2023-03-08T05:33:54.241Z,0.80
2023-03-08T05:38:55.878Z,0.80
2023-03-08T05:43:58.573Z,0.80
2023-03-08T05:49:01.171Z,0.80
2023-03-08T05:54:02.722Z,0.80
2023-03-08T05:59:04.339Z,0.90
2023-03-08T06:04:05.963Z,0.80
2023-03-08T06:09:07.702Z,0.80
2023-03-08T06:14:10.067Z,0.80
2023-03-08T06:19:12.666Z,0.90
2023-03-08T06:24:16.315Z,0.90
2023-03-08T06:29:18.004Z,0.90
2023-03-08T06:34:20.081Z,0.90
2023-03-08T06:39:21.771Z,0.90
2023-03-08T06:44:23.527Z,0.90
2023-03-08T06:49:25.210Z,0.90
2023-03-08T06:54:26.888Z,0.80
2023-03-08T06:59:28.590Z,0.90
2023-03-08T07:04:30.207Z,0.90
2023-03-08T07:09:31.780Z,0.90
2023-03-08T07:14:34.352Z,1.00
2023-03-08T07:19:35.967Z,1.00
2023-03-08T07:24:37.648Z,1.10
2023-03-08T07:29:39.333Z,1.10
2023-03-08T07:34:40.970Z,1.20
2023-03-08T07:39:42.659Z,1.30
2023-03-08T07:44:44.468Z,1.30
2023-03-08T07:49:46.130Z,1.40
2023-03-08T07:54:47.851Z,1.40
2023-03-08T07:59:54.410Z,1.50
2023-03-08T08:04:56.178Z,1.50
2023-03-08T08:09:57.873Z,1.50
2023-03-08T08:15:00.035Z,1.60
2023-03-08T08:20:01.681Z,1.70
2023-03-08T08:25:04.980Z,1.70
2023-03-08T08:30:07.105Z,1.70
2023-03-08T08:35:08.974Z,1.70
2023-03-08T08:40:12.050Z,1.70
2023-03-08T08:45:14.593Z,1.70
2023-03-08T08:50:16.423Z,1.70
2023-03-08T08:55:18.091Z,1.70
2023-03-08T09:00:22.860Z,1.70
2023-03-08T09:05:24.605Z,1.80
2023-03-08T09:10:30.230Z,1.80
2023-03-08T09:15:37.088Z,1.80
2023-03-08T09:20:38.763Z,1.90
2023-03-08T09:25:40.544Z,1.90
2023-03-08T09:30:42.184Z,2.00
2023-03-08T09:35:43.918Z,2.10
2023-03-08T09:40:51.499Z,2.20
2023-03-08T09:45:54.157Z,2.40
2023-03-08T09:50:59.043Z,2.50
2023-03-08T09:56:12.058Z,2.60
2023-03-08T10:01:24.657Z,2.60
2023-03-08T10:06:26.233Z,2.60
2023-03-08T10:11:37.012Z,2.70
2023-03-08T10:16:44.156Z,2.80
2023-03-08T10:21:46.445Z,2.90
2023-03-08T10:26:48.117Z,3.00
2023-03-08T10:31:50.244Z,3.00
2023-03-08T10:36:58.357Z,3.10
2023-03-08T10:42:01.581Z,3.10
2023-03-08T10:47:23.597Z,3.20
2023-03-08T10:52:26.534Z,3.30
2023-03-08T10:57:28.202Z,3.40
2023-03-08T11:02:29.885Z,3.40
2023-03-08T11:07:35.237Z,3.30
2023-03-08T11:12:37.392Z,3.40
2023-03-08T11:17:40.500Z,3.50
2023-03-08T11:22:42.483Z,3.60
2023-03-08T11:28:02.654Z,3.80
2023-03-08T11:33:31.172Z,3.90
2023-03-08T11:38:33.741Z,4.00
2023-03-08T11:43:41.606Z,4.10
2023-03-08T11:48:55.017Z,4.30
2023-03-08T11:53:56.800Z,4.30
2023-03-08T11:59:03.556Z,4.30
2023-03-08T12:04:09.593Z,4.40
2023-03-08T12:09:23.688Z,4.40
2023-03-08T12:14:33.392Z,4.60
2023-03-08T12:19:38.156Z,4.60
2023-03-08T12:24:49.696Z,4.70
2023-03-08T12:30:03.547Z,5.10
2023-03-08T12:35:07.295Z,5.10
2023-03-08T12:40:28.029Z,5.20
2023-03-08T12:45:35.854Z,5.10
2023-03-08T12:50:42.861Z,5.10
2023-03-08T12:55:45.132Z,5.00
2023-03-08T13:00:57.692Z,4.90
2023-03-08T13:06:00.026Z,4.80
2023-03-08T13:11:15.363Z,5.10
2023-03-08T13:16:17.036Z,4.90
2023-03-08T13:21:23.239Z,4.90
2023-03-08T13:26:49.342Z,4.90
2023-03-08T13:31:52.274Z,4.80
2023-03-08T13:36:56.027Z,4.90
2023-03-08T13:42:08.258Z,5.00
2023-03-08T13:47:21.322Z,5.00
2023-03-08T13:52:26.934Z,5.00
2023-03-08T13:57:36.513Z,5.00
2023-03-08T14:02:45.263Z,4.80
2023-03-08T14:07:58.362Z,4.80
2023-03-08T14:13:00.238Z,4.90
2023-03-08T14:18:05.212Z,4.80
2023-03-08T14:23:22.260Z,4.90
2023-03-08T14:28:43.067Z,4.90
2023-03-08T14:33:55.878Z,4.80
2023-03-08T14:39:00.055Z,4.90
2023-03-08T14:44:02.768Z,4.90
2023-03-08T14:49:04.991Z,4.90
2023-03-08T14:54:19.618Z,4.90
2023-03-08T14:59:27.721Z,5.00
2023-03-08T15:04:29.785Z,5.00
2023-03-08T15:09:32.274Z,4.90
2023-03-08T15:14:35.075Z,4.90
2023-03-08T15:19:36.714Z,5.00
2023-03-08T15:24:39.243Z,4.90
2023-03-08T15:29:40.904Z,4.90
2023-03-08T15:34:42.795Z,4.90
2023-03-08T15:39:44.419Z,4.90
2023-03-08T15:44:46.076Z,5.00
2023-03-08T15:49:50.179Z,4.90
2023-03-08T15:54:51.773Z,5.00
2023-03-08T15:59:53.488Z,4.90
2023-03-08T16:04:57.822Z,4.90
2023-03-08T16:09:59.510Z,4.90
2023-03-08T16:15:01.792Z,5.00
2023-03-08T16:20:06.298Z,5.00
2023-03-08T16:25:09.067Z,5.10
2023-03-08T16:30:11.492Z,5.10
2023-03-08T16:35:13.199Z,5.20
2023-03-08T16:40:18.105Z,5.20
2023-03-08T16:45:19.824Z,5.30
2023-03-08T16:50:27.265Z,5.20
2023-03-08T16:56:17.212Z,5.20
2023-03-08T17:01:20.277Z,5.20
2023-03-08T17:06:25.178Z,5.20
2023-03-08T17:11:33.313Z,5.20
2023-03-08T17:16:36.465Z,5.20
2023-03-08T17:28:22.886Z,5.20
2023-03-08T17:33:26.271Z,5.20
2023-03-08T17:38:38.557Z,5.10
2023-03-08T17:43:42.100Z,5.20
2023-03-08T17:48:47.006Z,5.20
2023-03-08T17:54:03.326Z,5.20
2023-03-08T17:59:05.130Z,5.20
2023-03-08T18:04:07.093Z,5.20
2023-03-08T18:21:01.322Z,5.10
2023-03-08T18:26:11.052Z,5.10
2023-03-08T18:31:15.082Z,5.10
2023-03-08T18:36:17.986Z,5.10
2023-03-08T18:41:22.307Z,5.20
2023-03-08T18:46:28.776Z,5.20
2023-03-08T18:51:39.513Z,5.20
2023-03-08T18:56:45.331Z,5.20
2023-03-08T19:01:49.905Z,5.20
2023-03-08T19:06:51.856Z,5.20
2023-03-08T19:11:53.481Z,5.20
2023-03-08T19:16:56.408Z,5.20
2023-03-08T19:21:59.130Z,5.30
2023-03-08T19:27:06.637Z,5.30
2023-03-08T19:32:08.673Z,5.30
2023-03-08T19:37:13.248Z,5.20
2023-03-08T19:42:38.861Z,5.20
2023-03-08T19:47:54.710Z,5.20
2023-03-08T19:52:56.507Z,5.20
2023-03-08T19:58:02.473Z,5.20
2023-03-08T20:03:04.227Z,5.20
2023-03-08T20:08:05.939Z,5.30
2023-03-08T20:13:07.706Z,5.10
2023-03-08T20:18:10.667Z,5.10
2023-03-08T20:23:14.436Z,5.20
2023-03-08T20:28:28.442Z,5.30
2023-03-08T20:33:37.360Z,5.20
2023-03-08T20:38:38.967Z,5.20
2023-03-08T20:43:40.633Z,5.30
2023-03-08T20:48:44.555Z,5.30
2023-03-08T20:53:48.663Z,5.30
2023-03-08T20:58:50.458Z,5.30
2023-03-08T21:03:52.112Z,5.30
2023-03-08T21:08:53.725Z,5.40
2023-03-08T21:13:55.663Z,5.40
2023-03-08T21:18:58.597Z,5.40
2023-03-08T21:24:04.555Z,5.40
2023-03-08T21:29:08.513Z,5.50
2023-03-08T21:34:11.362Z,5.50
2023-03-08T21:39:13.718Z,5.40
2023-03-08T21:44:17.279Z,5.50
2023-03-08T21:49:21.870Z,5.50
2023-03-08T21:54:24.479Z,5.50
2023-03-08T21:59:27.741Z,5.50
2023-03-08T22:04:29.456Z,5.50
2023-03-08T22:09:33.140Z,5.50
2023-03-08T22:14:36.835Z,5.60
2023-03-08T22:19:39.576Z,5.50
2023-03-08T22:24:41.370Z,5.60
2023-03-08T22:29:44.026Z,5.60
2023-03-08T22:34:47.879Z,5.60
2023-03-08T22:39:51.520Z,5.60
2023-03-08T22:44:54.259Z,5.60
2023-03-08T22:49:58.091Z,5.60
2023-03-08T22:55:05.987Z,5.60
2023-03-08T23:00:14.468Z,5.70
2023-03-08T23:05:18.068Z,5.80
2023-03-08T23:10:23.801Z,5.80
2023-03-08T23:15:27.968Z,5.80
2023-03-08T23:20:30.733Z,5.80
2023-03-08T23:25:32.895Z,5.80
2023-03-08T23:30:35.634Z,5.80
2023-03-08T23:35:38.370Z,5.80
2023-03-08T23:40:40.512Z,5.80
2023-03-08T23:45:44.227Z,5.80
2023-03-08T23:50:46.912Z,5.80
2023-03-08T23:55:49.595Z,5.80
